Overview Statistics Trail Chart Weather Telemetry Raw packets
 

This is the latest recevied weather packets stored in our database for station/object WP3OF-2. If no packets are shown the sender has not sent any weather packets the latest 10 day(s).

<< 1 2 3 4 5 6 7 >>
Time Temp. Humidity Pressure Rain* Wind** Luminosity Snow
1788626350 26.11° C 89% 1024.9 hPa 0 mm - 811 W/m² -
1788626046 26.11° C 88% 1024.9 hPa 0 mm - 852 W/m² -
1788625742 25.56° C 91% 1024.9 hPa 0 mm - 701 W/m² -
1788625436 25° C 90% 1024.9 hPa 0 mm - 897 W/m² -
1788625131 25° C 90% 1024.9 hPa 0 mm - 629 W/m² -
1788624830 25° C 92% 1024.9 hPa 0 mm - 395 W/m² -
1788624528 24.44° C 91% 1025.2 hPa 0 mm - 358 W/m² -
1788624224 24.44° C 92% 1025.2 hPa 0 mm - 401 W/m² -
1788623917 24.44° C 91% 1025.6 hPa 0 mm - 583 W/m² -
1788623616 23.89° C 93% 1025.2 hPa 0 mm - 626 W/m² -
1788623311 23.89° C 93% 1025.6 hPa 0 mm - 316 W/m² -
1788623007 23.89° C 93% 1025.6 hPa 0 mm - 398 W/m² -
1788622701 23.89° C 93% 1025.6 hPa 0 mm - 395 W/m² -
1788622398 23.89° C 94% 1025.6 hPa 0 mm - 470 W/m² -
1788622092 23.89° C 94% 1025.6 hPa 0 mm - 286 W/m² -
1788621791 23.89° C 92% 1026 hPa 0 mm - 558 W/m² -
1788621486 24.44° C 93% 1026 hPa 0 mm - 813 W/m² -
1788621182 24.44° C 94% 1026 hPa 0 mm - 440 W/m² -
1788620882 23.89° C 95% 1026 hPa 0 mm - 566 W/m² -
1788620581 23.33° C 96% 1025.6 hPa 0 mm - 279 W/m² -
1788620278 23.33° C 95% 1026 hPa 0 mm - 164 W/m² -
1788619973 23.33° C 95% 1025.6 hPa 0 mm - 285 W/m² -
1788619672 23.89° C 94% 1026 hPa 0 mm - 261 W/m² -
1788619368 23.89° C 93% 1026 hPa 0 mm - 314 W/m² -
1788619067 23.89° C 91% 1026 hPa 0 mm - 293 W/m² -

* Rain latest hour (hover to see other rain measurements)
** Current wind speed in m/s (hover to see current wind gust speed)